createdAt,value
2023-05-25T00:00:31.501Z,8.23
2023-05-25T00:02:59.501Z,8.10
2023-05-25T00:05:27.777Z,8.23
2023-05-25T00:07:55.553Z,8.07
2023-05-25T00:10:24.293Z,7.55
2023-05-25T00:12:51.975Z,7.57
2023-05-25T00:15:19.148Z,7.82
2023-05-25T00:17:49.035Z,8.18
2023-05-25T00:20:16.371Z,8.43
2023-05-25T00:22:47.646Z,8.57
2023-05-25T00:25:14.680Z,8.95
2023-05-25T00:27:41.626Z,8.18
2023-05-25T00:30:09.088Z,8.35
2023-05-25T00:32:36.768Z,9.00
2023-05-25T00:35:04.162Z,8.88
2023-05-25T00:37:31.476Z,9.73
2023-05-25T00:39:58.585Z,9.48
2023-05-25T00:42:28.162Z,8.90
2023-05-25T00:44:55.254Z,10.48
2023-05-25T00:47:22.693Z,9.50
2023-05-25T00:49:50.928Z,9.40
2023-05-25T00:52:18.444Z,9.73
2023-05-25T00:54:47.887Z,10.73
2023-05-25T00:59:46.581Z,9.57
2023-05-25T01:02:17.072Z,9.50
2023-05-25T01:05:00.609Z,10.02
2023-05-25T01:07:33.975Z,9.32
2023-05-25T01:10:05.351Z,8.68
2023-05-25T01:12:40.700Z,9.00
2023-05-25T01:15:09.201Z,9.02
2023-05-25T01:17:39.279Z,9.82
2023-05-25T01:20:11.648Z,9.73
2023-05-25T01:22:51.443Z,9.23
2023-05-25T01:25:30.233Z,10.13
2023-05-25T01:28:06.848Z,9.23
2023-05-25T01:30:38.133Z,9.05
2023-05-25T01:33:05.685Z,9.65
2023-05-25T01:35:33.998Z,9.40
2023-05-25T01:38:01.299Z,9.85
2023-05-25T01:40:28.464Z,10.20
2023-05-25T01:42:55.606Z,9.82
2023-05-25T01:45:23.128Z,10.70
2023-05-25T01:48:23.862Z,9.68
2023-05-25T01:50:59.511Z,10.02
2023-05-25T01:53:52.574Z,9.60
2023-05-25T01:56:21.629Z,10.02
2023-05-25T01:58:50.920Z,9.77
2023-05-25T02:03:49.232Z,9.98
2023-05-25T02:06:16.886Z,10.77
2023-05-25T02:08:44.357Z,10.05
2023-05-25T02:11:13.430Z,10.55
2023-05-25T02:13:40.841Z,10.13
2023-05-25T02:16:08.463Z,10.30
2023-05-25T02:18:35.918Z,8.85
2023-05-25T02:21:05.187Z,10.90
2023-05-25T02:23:32.201Z,10.27
2023-05-25T02:25:59.313Z,9.73
2023-05-25T02:28:26.600Z,10.20
2023-05-25T02:30:54.810Z,9.90
2023-05-25T02:33:21.942Z,10.73
2023-05-25T02:35:50.071Z,10.95
2023-05-25T02:38:17.089Z,11.32
2023-05-25T02:40:46.024Z,9.55
2023-05-25T02:43:13.457Z,10.88
2023-05-25T02:45:40.715Z,11.02
2023-05-25T02:48:07.780Z,11.48
2023-05-25T02:50:35.472Z,10.65
2023-05-25T02:53:06.246Z,11.00
2023-05-25T02:55:33.460Z,11.48
2023-05-25T02:58:00.831Z,11.23
2023-05-25T03:00:46.936Z,11.25
2023-05-25T03:03:14.789Z,10.60
2023-05-25T03:05:42.090Z,11.25
2023-05-25T03:08:09.295Z,11.80
2023-05-25T03:10:36.414Z,10.60
2023-05-25T03:13:03.753Z,11.57
2023-05-25T03:15:30.859Z,11.23
2023-05-25T03:18:01.315Z,11.32
2023-05-25T03:20:33.062Z,11.23
2023-05-25T03:23:00.352Z,11.45
2023-05-25T03:25:27.307Z,10.88
2023-05-25T03:27:54.942Z,10.98
2023-05-25T03:30:22.810Z,10.68
2023-05-25T03:32:49.861Z,11.23
2023-05-25T03:35:16.934Z,11.07
2023-05-25T03:37:43.891Z,10.98
2023-05-25T03:40:11.904Z,11.65
2023-05-25T03:42:39.230Z,11.15
2023-05-25T03:45:09.175Z,11.13
2023-05-25T03:47:37.093Z,11.00
2023-05-25T03:50:07.085Z,12.38
2023-05-25T03:52:34.173Z,10.82
2023-05-25T03:55:04.622Z,10.95
2023-05-25T03:57:31.939Z,10.82
2023-05-25T03:59:59.571Z,11.73
2023-05-25T04:02:26.646Z,12.48
2023-05-25T04:04:57.133Z,11.90
2023-05-25T04:07:27.445Z,11.35
2023-05-25T04:09:54.443Z,10.68
2023-05-25T04:12:22.275Z,11.48
2023-05-25T04:14:49.280Z,11.27
2023-05-25T04:17:18.998Z,11.20
2023-05-25T04:19:45.979Z,11.37
2023-05-25T04:22:12.920Z,10.63
2023-05-25T04:24:41.181Z,11.95
2023-05-25T04:27:08.796Z,11.90
2023-05-25T04:29:38.316Z,12.88
2023-05-25T04:32:23.906Z,13.10
2023-05-25T04:35:09.876Z,13.45
2023-05-25T04:37:43.903Z,14.43
2023-05-25T04:40:12.048Z,14.13
2023-05-25T04:42:39.958Z,14.60
2023-05-25T04:45:11.317Z,14.63
2023-05-25T04:47:41.227Z,14.82
2023-05-25T04:50:11.938Z,13.05
2023-05-25T04:52:39.200Z,13.38
2023-05-25T04:55:06.713Z,13.25
2023-05-25T04:57:38.054Z,12.52
2023-05-25T05:00:06.372Z,14.25
2023-05-25T05:02:34.606Z,14.25
2023-05-25T05:05:01.751Z,13.88
2023-05-25T05:09:58.779Z,12.70
2023-05-25T05:12:26.456Z,14.82
2023-05-25T05:14:56.387Z,14.80
2023-05-25T05:17:24.078Z,14.40
2023-05-25T05:19:51.858Z,16.15
2023-05-25T05:22:18.978Z,15.05
2023-05-25T05:24:46.053Z,15.00
2023-05-25T05:27:19.680Z,15.63
2023-05-25T05:29:53.223Z,15.15
2023-05-25T05:32:20.660Z,15.23
2023-05-25T05:34:47.922Z,16.70
2023-05-25T05:37:31.069Z,15.95
2023-05-25T05:39:58.110Z,15.93
2023-05-25T05:42:25.117Z,16.15
2023-05-25T05:44:52.095Z,15.15
2023-05-25T05:47:19.422Z,14.77
2023-05-25T05:49:47.475Z,13.88
2023-05-25T05:52:14.454Z,15.65
2023-05-25T05:54:41.357Z,13.75
2023-05-25T05:57:11.896Z,15.23
2023-05-25T05:59:39.133Z,15.20
2023-05-25T06:02:07.461Z,13.90
2023-05-25T06:04:34.602Z,13.57
2023-05-25T06:07:01.567Z,13.52
2023-05-25T06:09:28.750Z,13.60
2023-05-25T06:11:59.812Z,12.52
2023-05-25T06:14:28.755Z,13.88
2023-05-25T06:16:58.987Z,12.85
2023-05-25T06:19:26.229Z,14.23
2023-05-25T06:21:53.142Z,12.40
2023-05-25T06:24:21.924Z,12.00
2023-05-25T06:26:50.038Z,12.88
2023-05-25T06:29:17.920Z,12.32
2023-05-25T06:31:45.131Z,12.30
2023-05-25T06:34:12.733Z,12.18
2023-05-25T06:36:41.633Z,11.82
2023-05-25T06:39:10.229Z,12.10
2023-05-25T06:41:39.177Z,11.00
2023-05-25T06:44:07.473Z,13.57
2023-05-25T06:46:42.019Z,11.80
2023-05-25T06:49:09.739Z,11.02
2023-05-25T06:51:37.269Z,9.20
2023-05-25T06:54:04.315Z,8.85
2023-05-25T06:56:31.466Z,9.13
2023-05-25T06:58:58.917Z,8.75
2023-05-25T07:01:26.588Z,9.00
2023-05-25T07:03:53.538Z,8.65
2023-05-25T07:06:20.838Z,7.80
2023-05-25T07:08:47.721Z,8.00
2023-05-25T07:11:14.689Z,9.15
2023-05-25T07:13:41.900Z,7.97
2023-05-25T07:16:09.202Z,7.63
2023-05-25T07:18:39.742Z,7.13
2023-05-25T07:21:10.150Z,7.60
2023-05-25T07:23:37.991Z,6.90
2023-05-25T07:26:06.007Z,6.80
2023-05-25T07:28:33.722Z,7.70
2023-05-25T07:31:01.507Z,8.07
2023-05-25T07:33:28.969Z,7.18
2023-05-25T07:35:56.011Z,7.20
2023-05-25T07:38:22.880Z,7.22
2023-05-25T07:40:50.118Z,6.53
2023-05-25T07:43:17.048Z,5.90
2023-05-25T07:45:44.261Z,6.07
2023-05-25T07:48:11.369Z,6.07
2023-05-25T07:50:38.615Z,6.00
2023-05-25T07:53:05.540Z,11.23
2023-05-25T07:55:32.569Z,6.80
2023-05-25T07:57:59.629Z,4.68
2023-05-25T08:00:26.686Z,5.40
2023-05-25T08:02:53.735Z,4.68
2023-05-25T08:05:20.710Z,4.75
2023-05-25T08:07:47.722Z,4.82
2023-05-25T08:10:14.812Z,4.43
2023-05-25T08:12:47.870Z,4.57
2023-05-25T08:15:17.429Z,4.75
2023-05-25T08:17:44.897Z,7.68
2023-05-25T08:20:12.698Z,8.60
2023-05-25T08:22:39.737Z,8.90
2023-05-25T08:25:08.166Z,9.32
2023-05-25T08:27:36.385Z,10.10
2023-05-25T08:30:06.160Z,9.18
2023-05-25T08:32:33.540Z,8.75
2023-05-25T08:35:02.034Z,8.93
2023-05-25T08:37:35.769Z,6.55
2023-05-25T08:40:03.108Z,6.72
2023-05-25T08:42:33.236Z,6.68
2023-05-25T08:45:00.253Z,6.53
2023-05-25T08:47:32.148Z,6.50
2023-05-25T08:50:01.859Z,6.25
2023-05-25T08:52:34.293Z,7.13
2023-05-25T08:55:06.449Z,6.38
2023-05-25T08:57:33.542Z,5.30
2023-05-25T09:00:12.283Z,5.75
2023-05-25T09:02:42.293Z,5.85
2023-05-25T09:05:09.660Z,6.40
2023-05-25T09:07:36.740Z,6.00
2023-05-25T09:10:04.973Z,6.45
2023-05-25T09:12:32.229Z,6.53
2023-05-25T09:14:59.531Z,7.85
2023-05-25T09:17:27.436Z,6.68
2023-05-25T09:19:55.043Z,5.38
2023-05-25T09:22:22.400Z,6.50
2023-05-25T09:24:49.444Z,6.68
2023-05-25T09:27:19.349Z,6.78
2023-05-25T09:29:50.788Z,5.60
2023-05-25T09:32:19.084Z,6.10
2023-05-25T09:34:47.304Z,5.95
2023-05-25T09:37:19.415Z,5.47
2023-05-25T09:39:48.102Z,6.43
2023-05-25T09:42:15.199Z,7.03
2023-05-25T09:44:43.200Z,6.50
2023-05-25T09:47:10.255Z,6.45
2023-05-25T09:49:37.386Z,5.82
2023-05-25T09:52:04.621Z,8.15
2023-05-25T09:54:31.632Z,7.22
2023-05-25T09:57:05.260Z,6.22
2023-05-25T09:59:32.649Z,6.28
2023-05-25T10:01:59.776Z,6.22
2023-05-25T10:04:27.070Z,5.93
2023-05-25T10:06:56.828Z,6.70
2023-05-25T10:09:27.195Z,6.07
2023-05-25T10:11:56.218Z,5.93
2023-05-25T10:14:29.348Z,6.85
2023-05-25T10:17:04.569Z,6.47
2023-05-25T10:19:43.109Z,7.32
2023-05-25T10:22:24.163Z,7.10
2023-05-25T10:24:55.091Z,7.47
2023-05-25T10:27:27.826Z,7.13
2023-05-25T10:30:01.874Z,8.68
2023-05-25T10:32:34.828Z,10.45
2023-05-25T10:35:03.413Z,7.50
2023-05-25T10:37:31.750Z,7.13
2023-05-25T10:40:00.426Z,7.53
2023-05-25T10:42:30.833Z,6.78
2023-05-25T10:44:58.405Z,6.43
2023-05-25T10:47:25.914Z,5.80
2023-05-25T10:50:02.049Z,5.70
2023-05-25T10:52:33.280Z,5.30
2023-05-25T10:55:02.163Z,5.65
2023-05-25T10:57:32.724Z,4.88
2023-05-25T11:00:08.316Z,4.88
2023-05-25T11:02:50.420Z,5.45
2023-05-25T11:05:26.955Z,3.88
2023-05-25T11:07:57.547Z,3.95
2023-05-25T11:10:49.279Z,3.70
2023-05-25T11:13:31.451Z,4.15
2023-05-25T11:16:17.811Z,4.53
2023-05-25T11:18:59.030Z,5.28
2023-05-25T11:21:30.357Z,6.65
2023-05-25T11:24:11.239Z,4.68
2023-05-25T11:26:53.075Z,5.13
2023-05-25T11:29:22.037Z,5.28
2023-05-25T11:31:56.300Z,4.63
2023-05-25T11:34:26.872Z,5.32
2023-05-25T11:36:55.695Z,3.85
2023-05-25T11:39:23.587Z,4.32
2023-05-25T11:42:02.191Z,4.72
2023-05-25T11:44:31.627Z,5.10
2023-05-25T11:49:29.148Z,5.18
2023-05-25T11:52:00.191Z,5.10
2023-05-25T11:54:29.101Z,4.28
2023-05-25T11:56:59.431Z,4.53
2023-05-25T11:59:29.816Z,4.40
2023-05-25T12:02:01.190Z,3.95
2023-05-25T12:04:34.019Z,3.90
2023-05-25T12:07:06.071Z,4.68
2023-05-25T12:09:33.430Z,4.57
2023-05-25T12:12:03.486Z,6.00
2023-05-25T12:14:30.637Z,6.45
2023-05-25T12:16:58.022Z,5.75
2023-05-25T12:19:25.287Z,5.50
2023-05-25T12:21:52.685Z,5.47
2023-05-25T12:24:19.918Z,5.05
2023-05-25T12:26:48.242Z,4.88
2023-05-25T12:29:15.268Z,4.77
2023-05-25T12:31:42.439Z,4.35
2023-05-25T12:34:17.923Z,3.53
2023-05-25T12:36:52.731Z,3.55
2023-05-25T12:39:34.655Z,3.67
2023-05-25T12:42:02.591Z,3.60
2023-05-25T12:44:37.375Z,3.25
2023-05-25T12:47:23.347Z,3.97
2023-05-25T12:49:52.998Z,3.85
2023-05-25T12:52:33.382Z,3.83
2023-05-25T12:55:19.715Z,3.97
2023-05-25T12:57:47.327Z,2.90
2023-05-25T13:00:14.443Z,3.38
2023-05-25T13:02:47.766Z,3.00
2023-05-25T13:05:30.529Z,3.55
2023-05-25T13:07:58.367Z,2.50
2023-05-25T13:10:26.178Z,2.55
2023-05-25T13:12:55.591Z,2.70
2023-05-25T13:17:51.608Z,2.67
2023-05-25T13:20:20.273Z,3.15
2023-05-25T13:22:49.768Z,2.42
2023-05-25T13:25:17.031Z,2.70
2023-05-25T13:27:45.767Z,2.85
2023-05-25T13:30:13.317Z,2.53
2023-05-25T13:32:40.576Z,2.47
2023-05-25T13:35:08.083Z,2.60
2023-05-25T13:37:35.073Z,2.40
2023-05-25T13:40:01.996Z,2.90
2023-05-25T13:42:32.371Z,2.80
2023-05-25T13:44:59.344Z,2.60
2023-05-25T13:47:26.413Z,3.00
2023-05-25T13:49:53.557Z,3.85
2023-05-25T13:52:20.488Z,2.55
2023-05-25T13:54:47.437Z,2.40
2023-05-25T13:57:14.588Z,2.60
2023-05-25T13:59:41.509Z,2.85
2023-05-25T14:02:08.611Z,2.63
2023-05-25T14:04:35.654Z,2.60
2023-05-25T14:07:02.794Z,4.30
2023-05-25T14:09:29.827Z,3.00
2023-05-25T14:11:57.148Z,2.40
2023-05-25T14:14:32.113Z,2.55
2023-05-25T14:17:01.438Z,2.72
2023-05-25T14:19:28.940Z,2.20
2023-05-25T14:22:11.790Z,2.40
2023-05-25T14:24:40.144Z,2.42
2023-05-25T14:27:07.419Z,2.63
2023-05-25T14:29:34.594Z,2.83
2023-05-25T14:32:01.901Z,3.17
2023-05-25T14:34:29.579Z,2.83
2023-05-25T14:36:56.819Z,2.70
2023-05-25T14:39:23.756Z,3.00
2023-05-25T14:41:50.974Z,3.00
2023-05-25T14:44:17.902Z,2.70
2023-05-25T14:46:45.060Z,2.75
2023-05-25T14:49:13.566Z,2.97
2023-05-25T14:51:40.544Z,2.45
2023-05-25T14:54:08.009Z,2.92
2023-05-25T14:56:35.176Z,2.92
2023-05-25T14:59:02.445Z,3.22
2023-05-25T15:01:29.593Z,3.08
2023-05-25T15:03:57.003Z,2.78
2023-05-25T15:06:24.453Z,2.90
2023-05-25T15:08:51.689Z,2.88
2023-05-25T15:11:18.978Z,3.03
2023-05-25T15:13:46.604Z,2.95
2023-05-25T15:16:14.907Z,2.97
2023-05-25T15:18:42.175Z,2.80
2023-05-25T15:21:09.623Z,2.80
2023-05-25T15:23:37.109Z,2.80
2023-05-25T15:26:04.851Z,3.40
2023-05-25T15:28:31.958Z,2.85
2023-05-25T15:31:01.729Z,3.10
2023-05-25T15:33:47.874Z,3.30
2023-05-25T15:36:17.921Z,2.70
2023-05-25T15:38:49.060Z,3.45
2023-05-25T15:41:17.387Z,3.08
2023-05-25T15:43:58.150Z,3.40
2023-05-25T15:46:26.048Z,3.75
2023-05-25T15:48:54.259Z,3.03
2023-05-25T15:51:22.152Z,3.43
2023-05-25T15:53:49.067Z,4.53
2023-05-25T15:56:16.134Z,4.40
2023-05-25T15:58:47.107Z,4.20
2023-05-25T16:01:14.404Z,4.70
2023-05-25T16:03:43.154Z,3.90
2023-05-25T16:06:11.157Z,5.22
2023-05-25T16:08:38.458Z,5.57
2023-05-25T16:11:05.773Z,4.80
2023-05-25T16:13:32.692Z,4.70
2023-05-25T16:15:59.658Z,5.97
2023-05-25T16:18:26.850Z,5.55
2023-05-25T16:20:55.978Z,6.00
2023-05-25T16:23:24.225Z,5.35
2023-05-25T16:25:51.258Z,5.00
2023-05-25T16:28:18.247Z,5.43
2023-05-25T16:30:45.352Z,5.15
2023-05-25T16:33:12.365Z,5.95
2023-05-25T16:35:39.467Z,5.95
2023-05-25T16:38:06.334Z,5.53
2023-05-25T16:40:33.663Z,5.45
2023-05-25T16:43:00.869Z,5.20
2023-05-25T16:45:28.209Z,5.15
2023-05-25T16:47:55.258Z,5.40
2023-05-25T16:50:22.331Z,4.97
2023-05-25T16:52:49.340Z,4.60
2023-05-25T16:55:16.626Z,5.45
2023-05-25T16:57:43.652Z,4.07
2023-05-25T17:00:11.576Z,4.68
2023-05-25T17:02:38.648Z,4.43
2023-05-25T17:05:06.927Z,4.43
2023-05-25T17:07:34.754Z,4.07
2023-05-25T17:10:02.071Z,5.20
2023-05-25T17:12:32.170Z,6.00
2023-05-25T17:14:59.180Z,5.57
2023-05-25T17:17:28.046Z,5.55
2023-05-25T17:19:55.627Z,5.50
2023-05-25T17:22:23.089Z,6.13
2023-05-25T17:24:50.216Z,7.80
2023-05-25T17:27:17.317Z,7.93
2023-05-25T17:29:44.298Z,7.97
2023-05-25T17:32:11.478Z,7.60
2023-05-25T17:34:38.515Z,7.40
2023-05-25T17:37:05.616Z,6.72
2023-05-25T17:39:32.539Z,7.22
2023-05-25T17:41:59.582Z,8.88
2023-05-25T17:44:26.996Z,6.35
2023-05-25T17:46:53.973Z,7.88
2023-05-25T17:49:20.973Z,6.35
2023-05-25T17:51:48.034Z,5.53
2023-05-25T17:54:18.425Z,5.88
2023-05-25T17:56:46.501Z,5.82
2023-05-25T17:59:13.474Z,5.78
2023-05-25T18:01:41.893Z,4.95
2023-05-25T18:04:09.138Z,4.50
2023-05-25T18:06:37.117Z,4.85
2023-05-25T18:09:04.376Z,4.97
2023-05-25T18:11:33.643Z,4.50
2023-05-25T18:14:00.736Z,5.10
2023-05-25T18:16:27.759Z,4.55
2023-05-25T18:18:54.789Z,5.10
2023-05-25T18:21:21.778Z,4.63
2023-05-25T18:23:48.851Z,4.22
2023-05-25T18:26:15.979Z,4.40
2023-05-25T18:28:43.026Z,4.90
2023-05-25T18:31:09.982Z,4.32
2023-05-25T18:33:37.244Z,5.05
2023-05-25T18:36:04.313Z,4.72
2023-05-25T18:38:31.392Z,5.03
2023-05-25T18:40:58.378Z,5.03
2023-05-25T18:43:26.158Z,4.70
2023-05-25T18:45:53.263Z,4.50
2023-05-25T18:48:20.380Z,4.45
2023-05-25T18:50:47.380Z,3.90
2023-05-25T18:53:14.350Z,4.70
2023-05-25T18:55:41.261Z,5.07
2023-05-25T18:58:08.329Z,5.15
2023-05-25T19:00:35.357Z,5.88
2023-05-25T19:03:02.341Z,5.35
2023-05-25T19:05:29.445Z,5.85
2023-05-25T19:07:59.543Z,5.90
2023-05-25T19:10:27.570Z,5.32
2023-05-25T19:12:55.072Z,5.05
2023-05-25T19:15:22.191Z,5.63
2023-05-25T19:17:49.235Z,5.70
2023-05-25T19:20:16.790Z,5.80
2023-05-25T19:22:44.187Z,5.82
2023-05-25T19:25:11.307Z,5.93
2023-05-25T19:27:38.415Z,6.25
2023-05-25T19:30:05.951Z,6.47
2023-05-25T19:32:33.627Z,6.68
2023-05-25T19:35:00.576Z,8.13
2023-05-25T19:37:27.610Z,7.15
2023-05-25T19:39:54.694Z,6.88
2023-05-25T19:42:21.745Z,6.47
2023-05-25T19:44:48.788Z,7.10
2023-05-25T19:47:16.001Z,7.05
2023-05-25T19:49:43.326Z,6.60
2023-05-25T19:52:10.293Z,7.30
2023-05-25T19:54:39.492Z,7.03
2023-05-25T19:57:07.440Z,7.22
2023-05-25T19:59:34.540Z,7.72
2023-05-25T20:02:01.806Z,8.30
2023-05-25T20:04:28.864Z,8.02
2023-05-25T20:06:55.958Z,6.90
2023-05-25T20:09:30.598Z,8.27
2023-05-25T20:11:58.956Z,7.97
2023-05-25T20:14:26.563Z,7.20
2023-05-25T20:16:55.819Z,6.07
2023-05-25T20:19:23.434Z,7.55
2023-05-25T20:21:51.019Z,6.65
2023-05-25T20:24:18.227Z,6.82
2023-05-25T20:26:45.665Z,5.88
2023-05-25T20:29:12.648Z,5.85
2023-05-25T20:31:40.547Z,5.53
2023-05-25T20:34:07.737Z,5.70
2023-05-25T20:36:34.817Z,5.93
2023-05-25T20:39:03.254Z,6.10
2023-05-25T20:41:30.687Z,6.85
2023-05-25T20:43:57.943Z,5.88
2023-05-25T20:46:26.168Z,5.95
2023-05-25T20:48:53.614Z,11.25
2023-05-25T20:51:21.974Z,7.20
2023-05-25T20:53:49.038Z,6.70
2023-05-25T20:56:16.199Z,7.20
2023-05-25T20:58:43.243Z,7.43
2023-05-25T21:01:10.329Z,7.32
2023-05-25T21:03:37.350Z,7.80
2023-05-25T21:06:04.589Z,8.93
2023-05-25T21:08:32.101Z,8.48
2023-05-25T21:10:59.266Z,8.40
2023-05-25T21:13:26.290Z,6.82
2023-05-25T21:15:53.344Z,7.32
2023-05-25T21:18:20.539Z,7.95
2023-05-25T21:20:47.489Z,8.98
2023-05-25T21:23:14.877Z,7.40
2023-05-25T21:25:41.762Z,7.63
2023-05-25T21:28:10.393Z,7.82
2023-05-25T21:30:37.287Z,7.95
2023-05-25T21:33:04.356Z,8.77
2023-05-25T21:35:31.476Z,8.90
2023-05-25T21:37:58.464Z,8.63
2023-05-25T21:40:25.489Z,9.57
2023-05-25T21:42:53.466Z,9.90
2023-05-25T21:45:21.297Z,9.75
2023-05-25T21:47:48.432Z,10.30
2023-05-25T21:50:15.874Z,10.38
2023-05-25T21:52:43.017Z,10.63
2023-05-25T21:55:10.198Z,10.48
2023-05-25T21:57:37.672Z,10.88
2023-05-25T22:00:06.571Z,9.30
2023-05-25T22:02:41.033Z,10.35
2023-05-25T22:05:08.108Z,11.18
2023-05-25T22:07:35.030Z,12.23
2023-05-25T22:10:02.126Z,11.63
2023-05-25T22:12:30.803Z,12.07
2023-05-25T22:14:57.817Z,11.88
2023-05-25T22:17:24.862Z,11.35
2023-05-25T22:20:03.232Z,12.30
2023-05-25T22:22:34.203Z,12.70
2023-05-25T22:25:01.314Z,11.65
2023-05-25T22:27:30.529Z,13.05
2023-05-25T22:29:57.432Z,12.85
2023-05-25T22:32:24.501Z,11.40
2023-05-25T22:34:51.465Z,11.77
2023-05-25T22:37:18.898Z,11.68
2023-05-25T22:39:45.828Z,12.48
2023-05-25T22:42:12.880Z,12.40
2023-05-25T22:44:39.862Z,11.70
2023-05-25T22:47:07.080Z,13.35
2023-05-25T22:49:41.265Z,12.40
2023-05-25T22:52:10.507Z,12.57
2023-05-25T22:54:37.494Z,13.60
2023-05-25T22:57:04.712Z,12.95
2023-05-25T22:59:31.611Z,12.63
2023-05-25T23:01:58.805Z,12.85
2023-05-25T23:04:25.740Z,12.30
2023-05-25T23:06:52.766Z,12.40
2023-05-25T23:09:19.847Z,11.40
2023-05-25T23:11:46.928Z,11.52
2023-05-25T23:14:13.938Z,10.75
2023-05-25T23:16:41.692Z,10.77
2023-05-25T23:19:08.906Z,10.18
2023-05-25T23:21:35.858Z,10.05
2023-05-25T23:24:02.875Z,9.70
2023-05-25T23:26:29.794Z,9.20
2023-05-25T23:28:56.733Z,9.32
2023-05-25T23:31:23.914Z,8.70
2023-05-25T23:33:51.009Z,9.18
2023-05-25T23:36:18.080Z,9.05
2023-05-25T23:38:45.844Z,9.80
2023-05-25T23:41:12.919Z,8.90
2023-05-25T23:43:39.809Z,8.90
2023-05-25T23:46:07.349Z,8.90
2023-05-25T23:48:34.466Z,9.35
2023-05-25T23:51:01.496Z,9.93
2023-05-25T23:53:28.516Z,9.90
2023-05-25T23:55:55.592Z,9.55
2023-05-25T23:58:22.933Z,8.93
